sensor_id;sensor_type;location;lat;lon;timestamp;pressure;altitude;pressure_sealevel;temperature;humidity
12666;BME280;58531;59.050;17.416;2023-03-19T00:01:28;100722.06;;;3.35;100.00
12666;BME280;58531;59.050;17.416;2023-03-19T00:03:55;100721.66;;;3.40;100.00
12666;BME280;58531;59.050;17.416;2023-03-19T00:06:22;100728.88;;;3.29;100.00
12666;BME280;58531;59.050;17.416;2023-03-19T00:08:49;100722.91;;;3.11;100.00
12666;BME280;58531;59.050;17.416;2023-03-19T00:11:18;100725.22;;;2.88;100.00
12666;BME280;58531;59.050;17.416;2023-03-19T00:13:45;100721.50;;;2.75;100.00
12666;BME280;58531;59.050;17.416;2023-03-19T00:16:12;100729.03;;;2.73;100.00
12666;BME280;58531;59.050;17.416;2023-03-19T00:18:39;100733.91;;;2.68;100.00
12666;BME280;58531;59.050;17.416;2023-03-19T00:21:06;100727.50;;;2.72;100.00
12666;BME280;58531;59.050;17.416;2023-03-19T00:23:33;100733.53;;;2.69;100.00
12666;BME280;58531;59.050;17.416;2023-03-19T00:26:01;100732.41;;;2.70;100.00
12666;BME280;58531;59.050;17.416;2023-03-19T00:28:29;100736.53;;;2.75;100.00
12666;BME280;58531;59.050;17.416;2023-03-19T00:30:56;100731.25;;;2.82;100.00
12666;BME280;58531;59.050;17.416;2023-03-19T00:33:23;100738.03;;;2.86;100.00
12666;BME280;58531;59.050;17.416;2023-03-19T00:35:51;100740.28;;;2.84;100.00
12666;BME280;58531;59.050;17.416;2023-03-19T00:38:18;100733.50;;;2.87;100.00
12666;BME280;58531;59.050;17.416;2023-03-19T00:40:45;100738.41;;;2.92;100.00
12666;BME280;58531;59.050;17.416;2023-03-19T00:43:12;100745.56;;;2.95;100.00
12666;BME280;58531;59.050;17.416;2023-03-19T00:45:41;100742.53;;;2.96;100.00
12666;BME280;58531;59.050;17.416;2023-03-19T00:48:07;100745.16;;;2.96;100.00
12666;BME280;58531;59.050;17.416;2023-03-19T00:50:34;100739.16;;;2.92;100.00
12666;BME280;58531;59.050;17.416;2023-03-19T00:53:01;100742.53;;;2.82;100.00
12666;BME280;58531;59.050;17.416;2023-03-19T00:55:28;100750.81;;;2.91;100.00
12666;BME280;58531;59.050;17.416;2023-03-19T00:57:55;100754.97;;;2.96;100.00
12666;BME280;58531;59.050;17.416;2023-03-19T01:00:22;100758.34;;;2.96;100.00
12666;BME280;58531;59.050;17.416;2023-03-19T01:02:51;100748.19;;;2.95;100.00
12666;BME280;58531;59.050;17.416;2023-03-19T01:05:18;100750.09;;;2.84;100.00
12666;BME280;58531;59.050;17.416;2023-03-19T01:07:45;100756.13;;;2.81;100.00
12666;BME280;58531;59.050;17.416;2023-03-19T01:10:12;100753.88;;;2.79;100.00
12666;BME280;58531;59.050;17.416;2023-03-19T01:12:41;100756.13;;;2.81;100.00
12666;BME280;58531;59.050;17.416;2023-03-19T01:15:08;100767.81;;;2.80;100.00
12666;BME280;58531;59.050;17.416;2023-03-19T01:17:35;100758.78;;;2.77;100.00
12666;BME280;58531;59.050;17.416;2023-03-19T01:20:05;100765.94;;;2.80;100.00
12666;BME280;58531;59.050;17.416;2023-03-19T01:22:37;100763.63;;;2.82;100.00
12666;BME280;58531;59.050;17.416;2023-03-19T01:25:05;100762.50;;;2.83;100.00
12666;BME280;58531;59.050;17.416;2023-03-19T01:27:32;100768.16;;;2.85;100.00
12666;BME280;58531;59.050;17.416;2023-03-19T01:30:00;100759.88;;;2.87;100.00
12666;BME280;58531;59.050;17.416;2023-03-19T01:32:27;100771.94;;;2.88;100.00
12666;BME280;58531;59.050;17.416;2023-03-19T01:34:53;100772.69;;;2.88;100.00
12666;BME280;58531;59.050;17.416;2023-03-19T01:37:22;100779.09;;;2.87;100.00
12666;BME280;58531;59.050;17.416;2023-03-19T01:39:49;100780.22;;;2.83;100.00
12666;BME280;58531;59.050;17.416;2023-03-19T01:42:16;100776.84;;;2.79;100.00
12666;BME280;58531;59.050;17.416;2023-03-19T01:44:44;100784.38;;;2.80;100.00
12666;BME280;58531;59.050;17.416;2023-03-19T01:47:15;100778.75;;;2.78;100.00
12666;BME280;58531;59.050;17.416;2023-03-19T01:49:42;100785.16;;;2.77;100.00
12666;BME280;58531;59.050;17.416;2023-03-19T01:52:12;100789.28;;;2.78;100.00
12666;BME280;58531;59.050;17.416;2023-03-19T01:54:42;100792.28;;;2.77;100.00
12666;BME280;58531;59.050;17.416;2023-03-19T01:57:11;100784.75;;;2.79;100.00
12666;BME280;58531;59.050;17.416;2023-03-19T01:59:41;100794.56;;;2.82;100.00
12666;BME280;58531;59.050;17.416;2023-03-19T02:02:14;100793.03;;;2.84;100.00
12666;BME280;58531;59.050;17.416;2023-03-19T02:04:43;100798.31;;;2.84;100.00
12666;BME280;58531;59.050;17.416;2023-03-19T02:07:12;100795.66;;;2.84;100.00
12666;BME280;58531;59.050;17.416;2023-03-19T02:09:41;100803.59;;;2.81;100.00
12666;BME280;58531;59.050;17.416;2023-03-19T02:12:09;100793.06;;;2.77;100.00
12666;BME280;58531;59.050;17.416;2023-03-19T02:14:37;100798.31;;;2.77;100.00
12666;BME280;58531;59.050;17.416;2023-03-19T02:17:04;100804.34;;;2.78;100.00
12666;BME280;58531;59.050;17.416;2023-03-19T02:19:38;100799.09;;;2.74;100.00
12666;BME280;58531;59.050;17.416;2023-03-19T02:22:07;100799.44;;;2.73;100.00
12666;BME280;58531;59.050;17.416;2023-03-19T02:24:40;100796.06;;;2.72;100.00
12666;BME280;58531;59.050;17.416;2023-03-19T02:27:11;100799.84;;;2.78;100.00
12666;BME280;58531;59.050;17.416;2023-03-19T02:29:38;100797.56;;;2.80;100.00
12666;BME280;58531;59.050;17.416;2023-03-19T02:32:05;100803.97;;;2.79;100.00
12666;BME280;58531;59.050;17.416;2023-03-19T02:34:35;100808.13;;;2.84;100.00
12666;BME280;58531;59.050;17.416;2023-03-19T02:37:05;100808.13;;;2.84;100.00
12666;BME280;58531;59.050;17.416;2023-03-19T02:39:43;100818.66;;;2.87;100.00
12666;BME280;58531;59.050;17.416;2023-03-19T02:42:15;100817.91;;;2.87;100.00
12666;BME280;58531;59.050;17.416;2023-03-19T02:44:42;100818.28;;;2.89;100.00
12666;BME280;58531;59.050;17.416;2023-03-19T02:47:10;100825.06;;;2.90;100.00
12666;BME280;58531;59.050;17.416;2023-03-19T02:49:37;100823.56;;;2.89;100.00
12666;BME280;58531;59.050;17.416;2023-03-19T02:52:04;100826.94;;;2.93;100.00
12666;BME280;58531;59.050;17.416;2023-03-19T02:54:31;100832.22;;;3.00;100.00
12666;BME280;58531;59.050;17.416;2023-03-19T02:56:58;100827.66;;;3.11;100.00
12666;BME280;58531;59.050;17.416;2023-03-19T02:59:26;100831.44;;;3.20;100.00
12666;BME280;58531;59.050;17.416;2023-03-19T03:01:53;100832.94;;;3.25;100.00
12666;BME280;58531;59.050;17.416;2023-03-19T03:04:20;100831.06;;;3.29;100.00
12666;BME280;58531;59.050;17.416;2023-03-19T03:06:47;100843.09;;;3.33;100.00
12666;BME280;58531;59.050;17.416;2023-03-19T03:09:14;100841.19;;;3.37;100.00
12666;BME280;58531;59.050;17.416;2023-03-19T03:11:41;100845.34;;;3.38;100.00
12666;BME280;58531;59.050;17.416;2023-03-19T03:14:08;100846.50;;;3.34;100.00
12666;BME280;58531;59.050;17.416;2023-03-19T03:16:36;100845.78;;;3.26;100.00
12666;BME280;58531;59.050;17.416;2023-03-19T03:19:04;100841.63;;;3.25;100.00
12666;BME280;58531;59.050;17.416;2023-03-19T03:21:31;100843.13;;;3.23;100.00
12666;BME280;58531;59.050;17.416;2023-03-19T03:23:58;100847.66;;;3.19;100.00
12666;BME280;58531;59.050;17.416;2023-03-19T03:26:25;100852.56;;;3.13;100.00
12666;BME280;58531;59.050;17.416;2023-03-19T03:28:52;100848.78;;;3.14;100.00
12666;BME280;58531;59.050;17.416;2023-03-19T03:31:19;100846.91;;;3.04;100.00
12666;BME280;58531;59.050;17.416;2023-03-19T03:33:47;100856.31;;;2.91;100.00
12666;BME280;58531;59.050;17.416;2023-03-19T03:36:14;100844.28;;;2.76;100.00
12666;BME280;58531;59.050;17.416;2023-03-19T03:38:41;100840.50;;;2.70;100.00
12666;BME280;58531;59.050;17.416;2023-03-19T03:41:09;100836.72;;;2.68;100.00
12666;BME280;58531;59.050;17.416;2023-03-19T03:43:35;100832.56;;;2.60;100.00
12666;BME280;58531;59.050;17.416;2023-03-19T03:46:04;100825.03;;;2.51;100.00
12666;BME280;58531;59.050;17.416;2023-03-19T03:48:31;100816.72;;;2.35;100.00
12666;BME280;58531;59.050;17.416;2023-03-19T03:51:00;100813.34;;;2.25;100.00
12666;BME280;58531;59.050;17.416;2023-03-19T03:53:27;100811.03;;;2.16;100.00
12666;BME280;58531;59.050;17.416;2023-03-19T03:55:54;100811.06;;;2.20;100.00
12666;BME280;58531;59.050;17.416;2023-03-19T03:58:21;100815.59;;;2.29;100.00
12666;BME280;58531;59.050;17.416;2023-03-19T04:00:48;100820.91;;;2.40;100.00
12666;BME280;58531;59.050;17.416;2023-03-19T04:03:15;100818.28;;;2.54;100.00
12666;BME280;58531;59.050;17.416;2023-03-19T04:05:42;100830.72;;;2.60;100.00
12666;BME280;58531;59.050;17.416;2023-03-19T04:08:10;100831.47;;;2.68;100.00
12666;BME280;58531;59.050;17.416;2023-03-19T04:10:38;100825.44;;;2.67;100.00
12666;BME280;58531;59.050;17.416;2023-03-19T04:13:06;100827.69;;;2.62;100.00
12666;BME280;58531;59.050;17.416;2023-03-19T04:15:33;100843.13;;;2.60;100.00
12666;BME280;58531;59.050;17.416;2023-03-19T04:18:00;100840.47;;;2.60;100.00
12666;BME280;58531;59.050;17.416;2023-03-19T04:20:27;100840.13;;;2.54;100.00
12666;BME280;58531;59.050;17.416;2023-03-19T04:22:54;100841.25;;;2.60;100.00
12666;BME280;58531;59.050;17.416;2023-03-19T04:25:22;100843.53;;;2.65;100.00
12666;BME280;58531;59.050;17.416;2023-03-19T04:27:49;100845.03;;;2.70;100.00
12666;BME280;58531;59.050;17.416;2023-03-19T04:30:17;100848.03;;;2.68;100.00
12666;BME280;58531;59.050;17.416;2023-03-19T04:32:44;100860.81;;;2.63;100.00
12666;BME280;58531;59.050;17.416;2023-03-19T04:35:11;100875.88;;;2.55;100.00
12666;BME280;58531;59.050;17.416;2023-03-19T04:37:38;100882.66;;;2.56;100.00
12666;BME280;58531;59.050;17.416;2023-03-19T04:40:06;100884.19;;;2.64;100.00
12666;BME280;58531;59.050;17.416;2023-03-19T04:42:35;100895.13;;;2.70;100.00
12666;BME280;58531;59.050;17.416;2023-03-19T04:45:01;100896.25;;;2.72;100.00
12666;BME280;58531;59.050;17.416;2023-03-19T04:47:28;100891.75;;;2.76;100.00
12666;BME280;58531;59.050;17.416;2023-03-19T04:49:56;100897.75;;;2.77;100.00
12666;BME280;58531;59.050;17.416;2023-03-19T04:52:23;100901.16;;;2.77;100.00
12666;BME280;58531;59.050;17.416;2023-03-19T04:54:49;100912.09;;;2.72;100.00
12666;BME280;58531;59.050;17.416;2023-03-19T04:57:16;100912.06;;;2.69;100.00
12666;BME280;58531;59.050;17.416;2023-03-19T04:59:44;100918.47;;;2.64;100.00
12666;BME280;58531;59.050;17.416;2023-03-19T05:02:11;100906.44;;;2.70;100.00
12666;BME280;58531;59.050;17.416;2023-03-19T05:04:38;100910.56;;;2.71;100.00
12666;BME280;58531;59.050;17.416;2023-03-19T05:07:05;100907.94;;;2.75;100.00
12666;BME280;58531;59.050;17.416;2023-03-19T05:09:32;100901.56;;;2.79;100.00
12666;BME280;58531;59.050;17.416;2023-03-19T05:11:59;100905.31;;;2.85;100.00
12666;BME280;58531;59.050;17.416;2023-03-19T05:14:26;100899.66;;;2.90;100.00
12666;BME280;58531;59.050;17.416;2023-03-19T05:16:54;100903.81;;;2.98;100.00
12666;BME280;58531;59.050;17.416;2023-03-19T05:19:21;100900.03;;;2.99;100.00
12666;BME280;58531;59.050;17.416;2023-03-19T05:21:48;100912.09;;;2.93;100.00
12666;BME280;58531;59.050;17.416;2023-03-19T05:24:15;100917.38;;;2.97;100.00
12666;BME280;58531;59.050;17.416;2023-03-19T05:26:41;100918.13;;;2.94;100.00
12666;BME280;58531;59.050;17.416;2023-03-19T05:29:08;100922.63;;;2.86;100.00
12666;BME280;58531;59.050;17.416;2023-03-19T05:31:36;100911.72;;;2.88;100.00
12666;BME280;58531;59.050;17.416;2023-03-19T05:34:05;100924.53;;;2.93;100.00
12666;BME280;58531;59.050;17.416;2023-03-19T05:36:32;100925.66;;;2.88;100.00
12666;BME280;58531;59.050;17.416;2023-03-19T05:38:59;100933.19;;;2.90;100.00
12666;BME280;58531;59.050;17.416;2023-03-19T05:41:26;100929.41;;;2.84;100.00
12666;BME280;58531;59.050;17.416;2023-03-19T05:43:53;100924.16;;;2.94;100.00
12666;BME280;58531;59.050;17.416;2023-03-19T05:46:20;100933.59;;;3.02;100.00
12666;BME280;58531;59.050;17.416;2023-03-19T05:48:47;100930.97;;;3.06;100.00
12666;BME280;58531;59.050;17.416;2023-03-19T05:51:15;100938.88;;;3.13;100.00
12666;BME280;58531;59.050;17.416;2023-03-19T05:53:42;100942.66;;;3.15;100.00
12666;BME280;58531;59.050;17.416;2023-03-19T05:56:09;100945.66;;;3.17;100.00
12666;BME280;58531;59.050;17.416;2023-03-19T05:58:36;100945.66;;;3.10;100.00
12666;BME280;58531;59.050;17.416;2023-03-19T06:01:03;100947.53;;;3.13;100.00
12666;BME280;58531;59.050;17.416;2023-03-19T06:03:30;100954.34;;;3.21;100.00
12666;BME280;58531;59.050;17.416;2023-03-19T06:05:56;100956.22;;;3.28;100.00
12666;BME280;58531;59.050;17.416;2023-03-19T06:08:25;100952.84;;;3.27;100.00
12666;BME280;58531;59.050;17.416;2023-03-19T06:10:52;100954.31;;;3.35;100.00
12666;BME280;58531;59.050;17.416;2023-03-19T06:13:19;100959.63;;;3.46;100.00
12666;BME280;58531;59.050;17.416;2023-03-19T06:15:46;100955.09;;;3.43;100.00
12666;BME280;58531;59.050;17.416;2023-03-19T06:18:14;100955.84;;;3.57;100.00
12666;BME280;58531;59.050;17.416;2023-03-19T06:20:41;100956.59;;;3.68;100.00
12666;BME280;58531;59.050;17.416;2023-03-19T06:23:09;100955.44;;;3.79;100.00
12666;BME280;58531;59.050;17.416;2023-03-19T06:25:38;100960.31;;;3.84;100.00
12666;BME280;58531;59.050;17.416;2023-03-19T06:28:05;100956.94;;;3.80;100.00
12666;BME280;58531;59.050;17.416;2023-03-19T06:30:32;100959.16;;;3.89;100.00
12666;BME280;58531;59.050;17.416;2023-03-19T06:32:59;100954.19;;;4.19;100.00
12666;BME280;58531;59.050;17.416;2023-03-19T06:35:26;100958.69;;;4.25;100.00
12666;BME280;58531;59.050;17.416;2023-03-19T06:37:53;100963.50;;;4.48;100.00
12666;BME280;58531;59.050;17.416;2023-03-19T06:40:21;100968.41;;;4.53;100.00
12666;BME280;58531;59.050;17.416;2023-03-19T06:42:50;100974.44;;;4.57;100.00
12666;BME280;58531;59.050;17.416;2023-03-19T06:45:18;100966.16;;;4.48;100.00
12666;BME280;58531;59.050;17.416;2023-03-19T06:47:45;100964.69;;;4.40;100.00
12666;BME280;58531;59.050;17.416;2023-03-19T06:50:12;100969.97;;;4.40;100.00
12666;BME280;58531;59.050;17.416;2023-03-19T06:52:40;100971.31;;;4.72;100.00
12666;BME280;58531;59.050;17.416;2023-03-19T06:55:08;100970.78;;;5.05;100.00
12666;BME280;58531;59.050;17.416;2023-03-19T06:57:35;100972.06;;;5.34;100.00
12666;BME280;58531;59.050;17.416;2023-03-19T07:00:07;100967.75;;;5.54;100.00
12666;BME280;58531;59.050;17.416;2023-03-19T07:02:36;100973.84;;;5.91;100.00
12666;BME280;58531;59.050;17.416;2023-03-19T07:05:03;100975.78;;;6.24;100.00
12666;BME280;58531;59.050;17.416;2023-03-19T07:07:30;100978.50;;;6.47;100.00
12666;BME280;58531;59.050;17.416;2023-03-19T07:09:57;100985.56;;;6.60;100.00
12666;BME280;58531;59.050;17.416;2023-03-19T07:12:25;100984.59;;;6.47;100.00
12666;BME280;58531;59.050;17.416;2023-03-19T07:14:52;100980.34;;;6.20;100.00
12666;BME280;58531;59.050;17.416;2023-03-19T07:17:23;100985.38;;;6.11;100.00
12666;BME280;58531;59.050;17.416;2023-03-19T07:19:51;100978.84;;;6.19;100.00
12666;BME280;58531;59.050;17.416;2023-03-19T07:22:17;100980.06;;;6.11;100.00
12666;BME280;58531;59.050;17.416;2023-03-19T07:24:44;100979.59;;;6.19;100.00
12666;BME280;58531;59.050;17.416;2023-03-19T07:27:11;100987.00;;;6.65;100.00
12666;BME280;58531;59.050;17.416;2023-03-19T07:29:38;100992.69;;;6.67;100.00
12666;BME280;58531;59.050;17.416;2023-03-19T07:32:08;100993.06;;;7.21;100.00
12666;BME280;58531;59.050;17.416;2023-03-19T07:34:39;101007.03;;;7.48;100.00
12666;BME280;58531;59.050;17.416;2023-03-19T07:37:07;101007.44;;;7.70;100.00
12666;BME280;58531;59.050;17.416;2023-03-19T07:39:34;101010.56;;;7.88;100.00
12666;BME280;58531;59.050;17.416;2023-03-19T07:42:01;101016.53;;;7.72;100.00
12666;BME280;58531;59.050;17.416;2023-03-19T07:44:28;101015.53;;;7.40;100.00
12666;BME280;58531;59.050;17.416;2023-03-19T07:46:56;101009.69;;;7.25;100.00
12666;BME280;58531;59.050;17.416;2023-03-19T07:49:23;101001.56;;;7.09;100.00
12666;BME280;58531;59.050;17.416;2023-03-19T07:51:53;101006.19;;;7.05;100.00
12666;BME280;58531;59.050;17.416;2023-03-19T07:54:20;101004.09;;;6.64;100.00
12666;BME280;58531;59.050;17.416;2023-03-19T07:56:48;101000.88;;;6.46;100.00
12666;BME280;58531;59.050;17.416;2023-03-19T07:59:15;101000.53;;;6.44;100.00
12666;BME280;58531;59.050;17.416;2023-03-19T08:01:41;100997.13;;;6.43;100.00
12666;BME280;58531;59.050;17.416;2023-03-19T08:04:08;100992.13;;;6.49;100.00
12666;BME280;58531;59.050;17.416;2023-03-19T08:06:35;100996.88;;;6.94;100.00
12666;BME280;58531;59.050;17.416;2023-03-19T08:09:05;101001.78;;;7.45;100.00
12666;BME280;58531;59.050;17.416;2023-03-19T08:11:32;101002.59;;;7.42;100.00
12666;BME280;58531;59.050;17.416;2023-03-19T08:13:59;101003.94;;;7.04;100.00
12666;BME280;58531;59.050;17.416;2023-03-19T08:16:26;101003.78;;;7.14;100.00
12666;BME280;58531;59.050;17.416;2023-03-19T08:18:53;101004.63;;;7.08;100.00
12666;BME280;58531;59.050;17.416;2023-03-19T08:21:20;101007.78;;;7.26;100.00
12666;BME280;58531;59.050;17.416;2023-03-19T08:23:46;101010.38;;;7.29;100.00
12666;BME280;58531;59.050;17.416;2023-03-19T08:26:15;101011.78;;;7.37;100.00
12666;BME280;58531;59.050;17.416;2023-03-19T08:28:41;101020.09;;;7.39;100.00
12666;BME280;58531;59.050;17.416;2023-03-19T08:31:10;101013.22;;;7.42;100.00
12666;BME280;58531;59.050;17.416;2023-03-19T08:33:37;101022.88;;;7.32;100.00
12666;BME280;58531;59.050;17.416;2023-03-19T08:36:06;101025.25;;;7.50;100.00
12666;BME280;58531;59.050;17.416;2023-03-19T08:38:33;101024.84;;;7.25;100.00
12666;BME280;58531;59.050;17.416;2023-03-19T08:41:01;101019.25;;;7.19;100.00
12666;BME280;58531;59.050;17.416;2023-03-19T08:43:30;101014.69;;;6.94;100.00
12666;BME280;58531;59.050;17.416;2023-03-19T08:45:58;101017.78;;;7.15;100.00
12666;BME280;58531;59.050;17.416;2023-03-19T08:48:25;101017.06;;;7.14;100.00
12666;BME280;58531;59.050;17.416;2023-03-19T08:50:53;101015.59;;;7.36;100.00
12666;BME280;58531;59.050;17.416;2023-03-19T08:53:20;101026.56;;;7.38;100.00
12666;BME280;58531;59.050;17.416;2023-03-19T08:55:51;101025.16;;;7.99;100.00
12666;BME280;58531;59.050;17.416;2023-03-19T08:58:18;101024.25;;;8.09;99.23
12666;BME280;58531;59.050;17.416;2023-03-19T09:00:49;101029.22;;;8.30;99.56
12666;BME280;58531;59.050;17.416;2023-03-19T09:03:18;101027.59;;;8.36;98.99
12666;BME280;58531;59.050;17.416;2023-03-19T09:05:45;101025.72;;;8.33;98.37
12666;BME280;58531;59.050;17.416;2023-03-19T09:08:12;101033.97;;;7.96;100.00
12666;BME280;58531;59.050;17.416;2023-03-19T09:10:40;101030.50;;;7.99;100.00
12666;BME280;58531;59.050;17.416;2023-03-19T09:13:06;101030.16;;;8.20;100.00
12666;BME280;58531;59.050;17.416;2023-03-19T09:15:33;101032.72;;;8.23;100.00
12666;BME280;58531;59.050;17.416;2023-03-19T09:18:02;101027.75;;;8.25;100.00
12666;BME280;58531;59.050;17.416;2023-03-19T09:20:28;101027.94;;;8.15;100.00
12666;BME280;58531;59.050;17.416;2023-03-19T09:22:55;101033.88;;;7.80;100.00
12666;BME280;58531;59.050;17.416;2023-03-19T09:25:22;101025.66;;;7.71;100.00
12666;BME280;58531;59.050;17.416;2023-03-19T09:27:49;101034.69;;;7.77;100.00
12666;BME280;58531;59.050;17.416;2023-03-19T09:30:16;101028.94;;;8.02;100.00
12666;BME280;58531;59.050;17.416;2023-03-19T09:32:43;101025.25;;;7.96;100.00
12666;BME280;58531;59.050;17.416;2023-03-19T09:35:13;101028.94;;;8.02;100.00
12666;BME280;58531;59.050;17.416;2023-03-19T09:37:40;101032.06;;;7.97;100.00
12666;BME280;58531;59.050;17.416;2023-03-19T09:40:15;101029.09;;;7.91;100.00
12666;BME280;58531;59.050;17.416;2023-03-19T09:42:53;101039.06;;;7.87;100.00
12666;BME280;58531;59.050;17.416;2023-03-19T09:45:22;101041.38;;;7.85;100.00
12666;BME280;58531;59.050;17.416;2023-03-19T09:47:52;101044.41;;;7.87;100.00
12666;BME280;58531;59.050;17.416;2023-03-19T09:50:23;101049.34;;;7.62;100.00
12666;BME280;58531;59.050;17.416;2023-03-19T09:52:55;101047.03;;;7.64;100.00
12666;BME280;58531;59.050;17.416;2023-03-19T09:55:34;101050.13;;;7.63;100.00
12666;BME280;58531;59.050;17.416;2023-03-19T09:58:10;101059.88;;;7.69;100.00
12666;BME280;58531;59.050;17.416;2023-03-19T10:00:38;101059.88;;;7.92;100.00
12666;BME280;58531;59.050;17.416;2023-03-19T10:03:20;101064.03;;;7.70;100.00
12666;BME280;58531;59.050;17.416;2023-03-19T10:05:56;101071.22;;;7.73;100.00
12666;BME280;58531;59.050;17.416;2023-03-19T10:08:54;101066.00;;;7.66;100.00
12666;BME280;58531;59.050;17.416;2023-03-19T10:11:33;101067.03;;;7.72;100.00
12666;BME280;58531;59.050;17.416;2023-03-19T10:14:14;101067.28;;;7.81;100.00
12666;BME280;58531;59.050;17.416;2023-03-19T10:16:48;101067.16;;;7.65;100.00
12666;BME280;58531;59.050;17.416;2023-03-19T10:19:21;101055.28;;;7.70;100.00
12666;BME280;58531;59.050;17.416;2023-03-19T10:21:55;101064.31;;;7.99;100.00
12666;BME280;58531;59.050;17.416;2023-03-19T10:24:28;101055.19;;;7.77;100.00
12666;BME280;58531;59.050;17.416;2023-03-19T10:26:59;101057.91;;;7.96;100.00
12666;BME280;58531;59.050;17.416;2023-03-19T10:29:27;101059.81;;;7.96;100.00
12666;BME280;58531;59.050;17.416;2023-03-19T10:32:02;101050.25;;;7.98;100.00
12666;BME280;58531;59.050;17.416;2023-03-19T10:34:35;101057.50;;;7.98;100.00
12666;BME280;58531;59.050;17.416;2023-03-19T10:37:12;101050.38;;;7.91;100.00
12666;BME280;58531;59.050;17.416;2023-03-19T10:39:42;101040.66;;;8.04;100.00
12666;BME280;58531;59.050;17.416;2023-03-19T10:45:02;101054.78;;;8.01;100.00
12666;BME280;58531;59.050;17.416;2023-03-19T10:47:37;101054.22;;;7.90;100.00
12666;BME280;58531;59.050;17.416;2023-03-19T10:50:06;101049.63;;;7.91;100.00
12666;BME280;58531;59.050;17.416;2023-03-19T10:52:36;101051.88;;;7.92;100.00
12666;BME280;58531;59.050;17.416;2023-03-19T10:55:11;101048.63;;;8.04;100.00
12666;BME280;58531;59.050;17.416;2023-03-19T10:57:40;101050.72;;;8.16;100.00
12666;BME280;58531;59.050;17.416;2023-03-19T11:00:14;101053.97;;;8.46;100.00
12666;BME280;58531;59.050;17.416;2023-03-19T11:02:46;101052.34;;;8.52;100.00
12666;BME280;58531;59.050;17.416;2023-03-19T11:05:23;101050.16;;;8.67;100.00
12666;BME280;58531;59.050;17.416;2023-03-19T11:07:56;101040.06;;;8.39;100.00
12666;BME280;58531;59.050;17.416;2023-03-19T11:10:28;101042.91;;;8.28;100.00
12666;BME280;58531;59.050;17.416;2023-03-19T11:12:57;101043.84;;;8.18;100.00
12666;BME280;58531;59.050;17.416;2023-03-19T11:15:30;101033.09;;;8.03;100.00
12666;BME280;58531;59.050;17.416;2023-03-19T11:18:05;101040.75;;;7.78;100.00
12666;BME280;58531;59.050;17.416;2023-03-19T11:20:34;101041.53;;;7.75;100.00
12666;BME280;58531;59.050;17.416;2023-03-19T11:23:06;101039.59;;;7.56;100.00
12666;BME280;58531;59.050;17.416;2023-03-19T11:25:38;101043.44;;;7.51;100.00
12666;BME280;58531;59.050;17.416;2023-03-19T11:28:07;101038.38;;;7.60;100.00
12666;BME280;58531;59.050;17.416;2023-03-19T11:30:45;101036.50;;;7.57;100.00
12666;BME280;58531;59.050;17.416;2023-03-19T11:33:45;101036.78;;;7.40;100.00
12666;BME280;58531;59.050;17.416;2023-03-19T11:36:18;101045.00;;;7.49;100.00
12666;BME280;58531;59.050;17.416;2023-03-19T11:38:58;101043.53;;;7.44;100.00
12666;BME280;58531;59.050;17.416;2023-03-19T11:41:37;101045.19;;;7.38;100.00
12666;BME280;58531;59.050;17.416;2023-03-19T11:44:15;101039.53;;;7.59;100.00
12666;BME280;58531;59.050;17.416;2023-03-19T11:46:48;101048.38;;;7.53;100.00
12666;BME280;58531;59.050;17.416;2023-03-19T11:49:49;101047.91;;;7.58;100.00
12666;BME280;58531;59.050;17.416;2023-03-19T11:52:24;101043.22;;;7.65;100.00
12666;BME280;58531;59.050;17.416;2023-03-19T11:55:04;101036.63;;;7.50;100.00
12666;BME280;58531;59.050;17.416;2023-03-19T11:58:03;101041.13;;;7.53;100.00
12666;BME280;58531;59.050;17.416;2023-03-19T12:00:35;101036.88;;;7.82;100.00
12666;BME280;58531;59.050;17.416;2023-03-19T12:03:41;101036.13;;;7.82;100.00
12666;BME280;58531;59.050;17.416;2023-03-19T12:06:19;101038.50;;;7.76;100.00
12666;BME280;58531;59.050;17.416;2023-03-19T12:08:55;101045.06;;;7.91;100.00
12666;BME280;58531;59.050;17.416;2023-03-19T12:11:30;101048.91;;;7.90;100.00
12666;BME280;58531;59.050;17.416;2023-03-19T12:14:15;101034.41;;;7.91;100.00
12666;BME280;58531;59.050;17.416;2023-03-19T12:16:53;101037.28;;;7.81;100.00
12666;BME280;58531;59.050;17.416;2023-03-19T12:19:41;101031.59;;;7.79;100.00
12666;BME280;58531;59.050;17.416;2023-03-19T12:22:21;101032.06;;;7.97;100.00
12666;BME280;58531;59.050;17.416;2023-03-19T12:25:04;101038.31;;;7.87;100.00
12666;BME280;58531;59.050;17.416;2023-03-19T12:27:38;101035.03;;;7.79;100.00
12666;BME280;58531;59.050;17.416;2023-03-19T12:30:12;101030.75;;;7.62;100.00
12666;BME280;58531;59.050;17.416;2023-03-19T12:32:57;101027.28;;;7.65;100.00
12666;BME280;58531;59.050;17.416;2023-03-19T12:35:30;101019.31;;;7.65;100.00
12666;BME280;58531;59.050;17.416;2023-03-19T12:38:03;101021.91;;;7.69;100.00
12666;BME280;58531;59.050;17.416;2023-03-19T12:40:35;101018.31;;;7.56;100.00
12666;BME280;58531;59.050;17.416;2023-03-19T12:43:13;101017.56;;;7.55;100.00
12666;BME280;58531;59.050;17.416;2023-03-19T12:45:44;101019.69;;;7.41;100.00
12666;BME280;58531;59.050;17.416;2023-03-19T12:48:17;101017.59;;;7.29;100.00
12666;BME280;58531;59.050;17.416;2023-03-19T12:50:55;101015.25;;;7.57;100.00
12666;BME280;58531;59.050;17.416;2023-03-19T12:53:30;101017.00;;;7.67;100.00
12666;BME280;58531;59.050;17.416;2023-03-19T12:56:05;101008.41;;;8.02;100.00